Time;durP1;ratioP1;P1;durP2;ratioP2;P2;SDS_P1;SDS_P2;PMS_P1;PMS_P2;Temp;Humidity;BMP_temperature;BMP_pressure;BME280_temperature;BME280_humidity;BME280_pressure;Samples;Min_cycle;Max_cycle;Signal;HPM_P1;HPM_P2
2022/11/26 00:00:58;;;;;;;64.78;28.50;;;;;;;5.59;100.00;67396.75;4948570;28;20474;-88
2022/11/26 00:03:23;;;;;;;51.75;25.98;;;;;;;5.63;100.00;67401.28;4942337;28;20073;-88
2022/11/26 00:05:50;;;;;;;56.28;30.27;;;;;;;;;;4951135;28;20098;-88
2022/11/26 00:08:33;;;;;;;58.72;26.80;;;;;;;5.55;100.00;67391.66;4965038;28;20502;-88
2022/11/26 00:10:59;;;;;;;55.33;26.52;;;;;;;;;;4959710;28;20191;-89
2022/11/26 00:13:27;;;;;;;55.75;24.88;;;;;;;5.47;100.00;67377.34;4979425;28;20046;-88
2022/11/26 00:15:54;;;;;;;57.67;30.10;;;;;;;5.50;100.00;67388.69;5007636;28;20137;-88
2022/11/26 00:18:22;;;;;;;58.20;29.00;;;;;;;;;;5021048;28;20046;-88
2022/11/26 00:20:51;;;;;;;59.28;25.40;;;;;;;5.49;100.00;67385.47;5029239;28;20041;-88
2022/11/26 00:23:25;;;;;;;58.45;27.30;;;;;;;5.47;100.00;67377.94;5039856;28;20073;-88
2022/11/26 00:25:57;;;;;;;58.75;30.08;;;;;;;5.47;100.00;67382.63;5031998;28;20080;-88
2022/11/26 00:28:27;;;;;;;58.60;30.92;;;;;;;;;;5028529;28;20057;-88
2022/11/26 00:30:55;;;;;;;55.20;27.17;;;;;;;5.47;100.00;67377.94;5042733;28;20124;-88
2022/11/26 00:33:21;;;;;;;61.40;31.30;;;;;;;5.46;100.00;67376.78;5023830;28;20038;-88
2022/11/26 00:35:47;;;;;;;68.72;30.35;;;;;;;;;;5038732;28;20056;-88
2022/11/26 00:38:15;;;;;;;62.70;30.00;;;;;;;;;;5025621;28;20046;-87
2022/11/26 00:40:41;;;;;;;61.45;28.38;;;;;;;5.46;100.00;67382.06;5054438;28;20053;-88
2022/11/26 00:43:10;;;;;;;60.45;27.98;;;;;;;5.43;100.00;67378.69;5027155;28;20132;-88
2022/11/26 00:45:35;;;;;;;70.90;36.05;;;;;;;5.36;100.00;67370.78;5007842;28;20046;-87
2022/11/26 00:48:01;;;;;;;59.92;25.25;;;;;;;5.40;100.00;67375.28;5025745;28;20037;-88
2022/11/26 00:50:35;;;;;;;52.80;26.73;;;;;;;5.38;100.00;67375.66;5036227;28;20045;-88
2022/11/26 00:53:01;;;;;;;56.55;29.10;;;;;;;;;;5027147;28;20033;-88
2022/11/26 00:55:28;;;;;;;56.63;30.35;;;;;;;;;;5031248;28;20121;-88
2022/11/26 00:57:54;;;;;;;69.05;33.08;;;;;;;;;;5034689;28;20037;-88
2022/11/26 01:00:20;;;;;;;63.10;32.78;;;;;;;;;;5040401;28;20049;-89
2022/11/26 01:02:46;;;;;;;67.07;31.80;;;;;;;5.37;100.00;67372.47;5036045;28;20060;-88
2022/11/26 01:05:12;;;;;;;69.60;34.63;;;;;;;;;;5008873;28;20529;-88
2022/11/26 01:07:38;;;;;;;64.30;31.17;;;;;;;;;;5009799;28;20061;-88
2022/11/26 01:10:05;;;;;;;65.45;34.53;;;;;;;5.31;100.00;67365.69;5019479;28;20064;-89
2022/11/26 01:12:30;;;;;;;66.10;33.63;;;;;;;;;;5027759;28;20045;-88
2022/11/26 01:14:55;;;;;;;67.35;33.88;;;;;;;5.32;100.00;67366.25;5033421;28;20044;-88
2022/11/26 01:17:21;;;;;;;71.70;33.38;;;;;;;5.29;100.00;67365.50;5028121;28;20115;-89
2022/11/26 01:19:46;;;;;;;66.00;32.60;;;;;;;5.26;100.00;67354.19;5035860;28;20070;-89
2022/11/26 01:22:19;;;;;;;65.72;35.83;;;;;;;5.24;100.00;67351.94;5027709;28;20049;-88
2022/11/26 01:24:45;;;;;;;69.10;32.95;;;;;;;5.24;100.00;67357.22;5030747;28;20060;-89
2022/11/26 01:27:12;;;;;;;66.50;37.17;;;;;;;5.23;100.00;67356.09;5040333;28;20518;-89
2022/11/26 01:29:37;;;;;;;65.22;34.45;;;;;;;;;;5028386;28;20049;-89
2022/11/26 01:32:03;;;;;;;62.72;34.95;;;;;;;5.22;100.00;67355.53;5027850;28;20041;-89
2022/11/26 01:34:28;;;;;;;70.78;36.58;;;;;;;5.20;100.00;67347.97;5032295;28;20408;-88
2022/11/26 01:36:54;;;;;;;69.82;32.50;;;;;;;5.19;100.00;67352.69;5021157;28;20510;-89
2022/11/26 01:39:21;;;;;;;73.18;37.28;;;;;;;5.22;100.00;67355.53;5028318;28;20534;-89
2022/11/26 01:42:02;;;;;;;63.17;34.95;;;;;;;5.22;100.00;67355.53;5027895;28;20111;-89
2022/11/26 01:44:30;;;;;;;67.47;38.13;;;;;;;5.19;100.00;67352.13;4995483;28;20054;-89
2022/11/26 01:46:57;;;;;;;73.80;33.13;;;;;;;5.20;100.00;67353.81;5025812;28;20046;-87
2022/11/26 01:49:22;;;;;;;71.13;34.67;;;;;;;;;;5008567;28;20041;-89
2022/11/26 01:51:57;;;;;;;60.55;30.33;;;;;;;;;;5019465;28;20052;-87
2022/11/26 01:54:22;;;;;;;57.90;32.42;;;;;;;;;;4991203;28;20382;-87
2022/11/26 01:56:50;;;;;;;66.55;33.00;;;;;;;;;;5022276;28;20049;-87
2022/11/26 01:59:33;;;;;;;61.17;29.10;;;;;;;5.15;100.00;67348.19;5026469;28;20124;-87
2022/11/26 02:01:59;;;;;;;69.63;37.85;;;;;;;5.13;100.00;67345.38;5023098;28;20157;-88
2022/11/26 02:04:33;;;;;;;72.13;36.58;;;;;;;;;;5025247;28;20130;-87
2022/11/26 02:06:59;;;;;;;65.22;37.70;;;;;;;5.07;100.00;67338.59;5028294;28;20522;-89
2022/11/26 02:09:27;;;;;;;63.38;34.13;;;;;;;5.08;100.00;67335.00;5041398;28;20033;-87
2022/11/26 02:11:53;;;;;;;62.40;35.72;;;;;;;5.05;100.00;67336.88;5038719;28;20079;-88
2022/11/26 02:14:22;;;;;;;75.85;33.90;;;;;;;;;;5025098;28;20042;-88
2022/11/26 02:17:35;;;;;;;68.03;36.10;;;;;;;4.79;100.00;67302.25;5041508;28;20107;-89
2022/11/26 02:20:18;;;;;;;75.13;38.38;;;;;;;;;;4993834;28;20375;-87
2022/11/26 02:22:53;;;;;;;62.88;34.20;;;;;;;4.52;100.00;67278.19;5016549;28;20046;-87
2022/11/26 02:25:36;;;;;;;69.50;38.53;;;;;;;;;;5025450;28;20041;-89
2022/11/26 02:28:14;;;;;;;62.50;35.30;;;;;;;4.49;100.00;67275.34;5028906;28;20057;-88
2022/11/26 02:30:48;;;;;;;69.57;39.80;;;;;;;4.45;100.00;67270.81;5038393;28;20396;-87
2022/11/26 02:33:38;;;;;;;54.90;31.17;;;;;;;4.35;100.00;67261.63;5025814;28;20046;-87
2022/11/26 02:36:11;;;;;;;62.13;35.08;;;;;;;4.32;100.00;67250.88;5026745;28;20077;-87
2022/11/26 02:38:38;;;;;;;69.57;32.83;;;;;;;4.32;100.00;67255.59;5005560;28;20045;-90
2022/11/26 02:41:04;;;;;;;70.88;35.85;;;;;;;4.31;100.00;67257.66;5035796;28;20436;-88
2022/11/26 02:43:31;;;;;;;65.82;34.25;;;;;;;4.30;100.00;67253.91;5038880;28;20405;-88
2022/11/26 02:46:00;;;;;;;64.50;31.15;;;;;;;4.21;100.00;67244.31;5024297;28;20041;-90
2022/11/26 02:48:33;;;;;;;63.15;31.80;;;;;;;4.16;100.00;67240.72;5032825;28;20461;-88
2022/11/26 02:51:02;;;;;;;62.58;32.53;;;;;;;4.07;100.00;67228.50;5024708;28;20076;-87
2022/11/26 02:53:32;;;;;;;64.80;32.58;;;;;;;3.93;100.00;67213.25;5008438;28;20042;-88
2022/11/26 02:56:16;;;;;;;76.25;40.40;;;;;;;4.05;100.00;67228.88;5010831;28;20095;-87
2022/11/26 02:58:42;;;;;;;69.35;36.45;;;;;;;;;;5029553;28;20344;-88
2022/11/26 03:01:28;;;;;;;69.40;36.65;;;;;;;3.97;100.00;67220.44;5032483;28;20047;-90
2022/11/26 03:03:54;;;;;;;68.65;37.67;;;;;;;;;;5024072;28;20050;-87
2022/11/26 03:06:21;;;;;;;75.07;34.83;;;;;;;3.87;100.00;67208.56;5029805;28;20060;-89
2022/11/26 03:08:46;;;;;;;73.20;35.83;;;;;;;;;;5022040;28;20038;-87
2022/11/26 03:11:12;;;;;;;83.25;41.60;;;;;;;3.97;100.00;67219.84;5003790;28;20058;-88
2022/11/26 03:13:37;;;;;;;67.88;33.78;;;;;;;;;;5007437;28;20041;-88
2022/11/26 03:16:03;;;;;;;80.38;42.05;;;;;;;3.87;100.00;67205.94;5021992;28;20049;-87
2022/11/26 03:18:28;;;;;;;70.57;37.33;;;;;;;3.94;100.00;67213.81;5021804;28;20049;-88
2022/11/26 03:20:54;;;;;;;71.70;40.28;;;;;;;3.95;100.00;67214.97;5025614;28;20045;-89
2022/11/26 03:23:19;;;;;;;79.05;44.03;;;;;;;;;;5027830;28;20048;-87
2022/11/26 03:25:44;;;;;;;78.22;41.90;;;;;;;4.08;100.00;67232.25;5035094;28;20050;-87
2022/11/26 03:28:10;;;;;;;66.72;38.95;;;;;;;3.98;100.00;67213.66;5027026;28;20061;-88
2022/11/26 03:30:35;;;;;;;85.53;41.35;;;;;;;3.97;100.00;67217.22;5025010;28;20042;-88
2022/11/26 03:33:00;;;;;;;76.22;36.80;;;;;;;3.97;100.00;67217.78;5033655;28;20029;-88
2022/11/26 03:35:26;;;;;;;83.15;37.17;;;;;;;;;;5021374;28;20346;-89
2022/11/26 03:37:51;;;;;;;85.75;41.50;;;;;;;;;;5030340;28;20072;-88
2022/11/26 03:40:17;;;;;;;77.53;38.33;;;;;;;3.89;100.00;67208.19;5028368;28;20045;-89
2022/11/26 03:42:43;;;;;;;88.05;45.03;;;;;;;3.88;100.00;67207.63;5045539;28;20076;-89
2022/11/26 03:45:08;;;;;;;96.68;48.55;;;;;;;3.90;100.00;67212.50;5026358;28;20065;-89
2022/11/26 03:47:34;;;;;;;110.38;52.72;;;;;;;3.88;100.00;67210.25;5031630;28;20096;-89
2022/11/26 03:49:59;;;;;;;83.88;41.05;;;;;;;3.84;100.00;67195.22;5032720;28;20064;-88
2022/11/26 03:52:25;;;;;;;97.63;45.92;;;;;;;3.81;100.00;67199.72;5031700;28;20095;-88
2022/11/26 03:54:50;;;;;;;95.38;49.08;;;;;;;;;;5023943;28;20041;-88
2022/11/26 03:57:15;;;;;;;97.10;51.38;;;;;;;3.90;100.00;67209.31;5021102;28;20046;-87
2022/11/26 03:59:41;;;;;;;99.03;53.22;;;;;;;3.90;100.00;67204.63;5048612;28;20037;-88
2022/11/26 04:02:06;;;;;;;108.63;47.72;;;;;;;3.93;100.00;67215.34;5023355;28;20124;-89
2022/11/26 04:04:32;;;;;;;102.72;49.83;;;;;;;;;;5031011;28;20045;-88
2022/11/26 04:06:57;;;;;;;109.30;51.60;;;;;;;3.91;100.00;67210.44;5025185;28;20390;-87
2022/11/26 04:09:23;;;;;;;105.55;52.33;;;;;;;3.89;100.00;67208.19;5030249;28;20061;-88
2022/11/26 04:11:48;;;;;;;102.75;49.60;;;;;;;3.93;100.00;67212.72;5031318;28;20042;-87
2022/11/26 04:14:14;;;;;;;105.10;46.90;;;;;;;;;;5016528;28;20042;-88
2022/11/26 04:16:39;;;;;;;136.27;55.28;;;;;;;3.95;100.00;67214.97;5014923;28;20046;-88
2022/11/26 04:19:05;;;;;;;150.90;58.42;;;;;;;3.97;100.00;67217.22;5029033;28;20045;-88
2022/11/26 04:21:30;;;;;;;181.65;65.75;;;;;;;3.97;100.00;67217.78;5029378;28;20076;-89
2022/11/26 04:23:55;;;;;;;158.88;56.40;;;;;;;3.99;100.00;67214.75;5020297;28;20511;-87
2022/11/26 04:26:21;;;;;;;194.82;62.97;;;;;;;3.98;100.00;67218.34;5045560;28;20466;-88
2022/11/26 04:28:46;;;;;;;159.68;59.40;;;;;;;3.99;100.00;67220.03;5025951;28;20069;-87
2022/11/26 04:31:12;;;;;;;178.20;58.28;;;;;;;3.98;100.00;67220.97;5031279;28;20030;-88
2022/11/26 04:33:37;;;;;;;176.80;59.20;;;;;;;3.95;100.00;67215.53;5022726;28;20083;-89
2022/11/26 04:36:03;;;;;;;175.88;57.83;;;;;;;3.99;100.00;67220.03;5004302;28;20038;-88
2022/11/26 04:38:28;;;;;;;176.20;60.45;;;;;;;3.98;100.00;67224.19;5018774;28;20108;-89
2022/11/26 04:40:54;;;;;;;132.98;50.28;;;;;;;4.00;100.00;67220.59;5028336;28;20636;-87
2022/11/26 04:43:19;;;;;;;160.23;58.08;;;;;;;;;;5025907;28;20516;-88
2022/11/26 04:45:44;;;;;;;163.77;62.63;;;;;;;;;;5030776;28;20077;-88
2022/11/26 04:48:10;;;;;;;141.38;54.95;;;;;;;3.98;100.00;67218.34;5027584;28;20043;-89
2022/11/26 04:50:35;;;;;;;146.90;54.08;;;;;;;3.93;100.00;67212.72;5021078;28;20073;-88
2022/11/26 04:53:00;;;;;;;157.15;56.30;;;;;;;;;;5029764;28;20039;-88
2022/11/26 04:55:26;;;;;;;147.73;50.50;;;;;;;;;;5023429;28;20041;-88
2022/11/26 04:57:51;;;;;;;179.35;64.47;;;;;;;3.92;100.00;67214.22;5027438;28;20041;-88
2022/11/26 05:00:17;;;;;;;160.30;57.03;;;;;;;3.92;100.00;67212.16;5025788;28;20049;-88
2022/11/26 05:02:42;;;;;;;148.25;49.60;;;;;;;;;;5027449;28;20068;-88
2022/11/26 05:05:08;;;;;;;143.75;54.17;;;;;;;3.93;100.00;67213.25;5030403;28;20511;-88
2022/11/26 05:07:36;;;;;;;224.43;61.78;;;;;;;3.89;100.00;67208.75;5027284;28;20038;-89
2022/11/26 05:10:02;;;;;;;146.77;56.70;;;;;;;3.92;100.00;67206.31;5024069;28;20084;-88
2022/11/26 05:12:28;;;;;;;146.05;55.58;;;;;;;3.91;100.00;67213.06;5032017;28;20045;-88
2022/11/26 05:14:53;;;;;;;155.18;54.88;;;;;;;;;;5030831;28;20084;-87
2022/11/26 05:17:18;;;;;;;143.00;56.17;;;;;;;3.93;100.00;67215.34;5022978;28;20458;-89
2022/11/26 05:19:44;;;;;;;130.05;51.22;;;;;;;3.91;100.00;67205.75;5024783;28;20405;-87
2022/11/26 05:22:09;;;;;;;126.25;53.90;;;;;;;3.90;100.00;67209.88;5023698;28;20048;-88
2022/11/26 05:24:35;;;;;;;126.97;53.42;;;;;;;3.92;100.00;67212.16;5042972;28;20091;-88
2022/11/26 05:27:00;;;;;;;135.00;53.63;;;;;;;3.88;100.00;67207.06;5030942;28;20049;-88
2022/11/26 05:29:26;;;;;;;109.78;47.75;;;;;;;3.86;100.00;67204.81;5025564;28;20463;-88
2022/11/26 05:31:51;;;;;;;122.65;56.47;;;;;;;;;;5021563;28;20516;-88
2022/11/26 05:34:17;;;;;;;112.43;53.05;;;;;;;3.83;100.00;67202.56;5028847;28;20495;-88
2022/11/26 05:36:42;;;;;;;118.38;52.55;;;;;;;;;;5031255;28;20037;-87
2022/11/26 05:39:08;;;;;;;95.03;44.58;;;;;;;;;;5019048;28;20092;-88
2022/11/26 05:41:33;;;;;;;110.50;52.00;;;;;;;3.77;100.00;67190.53;5009849;28;20402;-88
2022/11/26 05:43:58;;;;;;;99.38;47.45;;;;;;;;;;5007115;28;20121;-87
2022/11/26 05:46:24;;;;;;;92.75;42.55;;;;;;;;;;5006050;28;20049;-87
2022/11/26 05:48:49;;;;;;;108.45;56.67;;;;;;;3.81;100.00;67199.72;5027701;28;20041;-88
2022/11/26 05:51:14;;;;;;;103.85;51.88;;;;;;;;;;5031791;28;20125;-86
2022/11/26 05:53:40;;;;;;;102.88;52.38;;;;;;;3.84;100.00;67203.69;5037616;28;20091;-88
2022/11/26 05:56:05;;;;;;;94.32;49.95;;;;;;;3.83;100.00;67202.56;5034681;28;20038;-87
2022/11/26 05:58:30;;;;;;;109.70;53.40;;;;;;;;;;5030192;28;20117;-87
2022/11/26 06:00:56;;;;;;;114.35;53.15;;;;;;;3.78;100.00;67199.53;5026518;28;20374;-88
2022/11/26 06:03:21;;;;;;;117.40;52.25;;;;;;;;;;5025145;28;20147;-88
2022/11/26 06:05:47;;;;;;;112.75;52.53;;;;;;;3.79;100.00;67198.03;5029008;28;20260;-88
2022/11/26 06:08:12;;;;;;;108.10;50.20;;;;;;;3.78;100.00;67196.91;5028395;28;20033;-88
2022/11/26 06:10:41;;;;;;;125.55;52.58;;;;;;;3.75;100.00;67195.59;5027286;28;20059;-87
2022/11/26 06:13:06;;;;;;;126.43;54.78;;;;;;;;;;5024135;28;20120;-89
2022/11/26 06:15:32;;;;;;;157.52;59.58;;;;;;;3.77;100.00;67195.78;5014326;28;20183;-87
2022/11/26 06:17:57;;;;;;;129.93;49.80;;;;;;;3.78;100.00;67196.91;5027378;28;20132;-88
2022/11/26 06:20:22;;;;;;;184.90;61.45;;;;;;;;;;5027133;28;20034;-88
2022/11/26 06:22:48;;;;;;;190.93;60.92;;;;;;;;;;5019202;28;20041;-88
2022/11/26 06:25:14;;;;;;;226.57;69.90;;;;;;;3.83;100.00;67202.56;5026174;28;20493;-89
2022/11/26 06:27:39;;;;;;;230.85;69.25;;;;;;;;;;5024435;28;20049;-86
2022/11/26 06:30:06;;;;;;;158.95;52.88;;;;;;;3.84;100.00;67203.13;5027867;28;20068;-88
2022/11/26 06:32:32;;;;;;;146.77;45.53;;;;;;;3.83;100.00;67202.56;5019910;28;20409;-87
2022/11/26 06:34:57;;;;;;;232.75;60.35;;;;;;;;;;5020973;28;20040;-88
2022/11/26 06:37:23;;;;;;;200.10;54.15;;;;;;;;;;5021281;28;20081;-88
2022/11/26 06:39:48;;;;;;;231.52;61.88;;;;;;;3.87;100.00;67208.56;5025275;28;20049;-89
2022/11/26 06:42:14;;;;;;;221.60;66.82;;;;;;;3.88;100.00;67207.06;5019500;28;20717;-88
2022/11/26 06:44:39;;;;;;;313.13;74.63;;;;;;;3.91;100.00;67213.63;5028243;28;20041;-87
2022/11/26 06:47:04;;;;;;;220.93;57.53;;;;;;;3.89;100.00;67208.75;5022316;28;20497;-88
2022/11/26 06:49:30;;;;;;;191.55;52.58;;;;;;;3.89;100.00;67208.19;5026647;28;20051;-88
2022/11/26 06:51:55;;;;;;;148.32;46.55;;;;;;;3.91;100.00;67211.00;5026323;28;20425;-87
2022/11/26 06:54:21;;;;;;;279.00;69.70;;;;;;;;;;5025528;28;20053;-88
2022/11/26 06:56:46;;;;;;;219.45;60.72;;;;;;;;;;5027934;28;20618;-88
2022/11/26 06:59:12;;;;;;;300.85;63.83;;;;;;;3.95;100.00;67214.97;5046399;28;20114;-87
2022/11/26 07:01:37;;;;;;;253.23;59.42;;;;;;;3.97;100.00;67211.94;5030215;28;20533;-88
2022/11/26 07:04:03;;;;;;;285.63;70.70;;;;;;;;;;5010104;28;20447;-88
2022/11/26 07:06:29;;;;;;;254.77;67.55;;;;;;;;;;5027792;28;20049;-88
2022/11/26 07:09:00;;;;;;;216.35;70.47;;;;;;;4.03;100.00;67227.19;5041098;28;20053;-88
2022/11/26 07:11:27;;;;;;;251.70;60.10;;;;;;;4.06;100.00;67232.66;5028893;28;20040;-88
2022/11/26 07:13:55;;;;;;;235.55;64.50;;;;;;;4.06;100.00;67222.13;5012801;28;20048;-88
2022/11/26 07:16:20;;;;;;;218.00;59.88;;;;;;;;;;5025203;28;20572;-87
2022/11/26 07:18:46;;;;;;;263.48;71.70;;;;;;;;;;5025472;28;20046;-88
2022/11/26 07:21:12;;;;;;;206.40;60.17;;;;;;;;;;5027615;28;20042;-87
2022/11/26 07:23:38;;;;;;;276.75;64.55;;;;;;;4.14;100.00;67236.41;5032873;28;20045;-88
2022/11/26 07:26:04;;;;;;;288.58;73.15;;;;;;;;;;5018435;28;20053;-88
2022/11/26 07:28:30;;;;;;;197.05;54.65;;;;;;;;;;5020613;28;20042;-88
2022/11/26 07:31:05;;;;;;;323.00;73.22;;;;;;;4.22;100.00;67245.44;5003554;28;20038;-88
2022/11/26 07:33:30;;;;;;;166.73;46.55;;;;;;;;;;5005437;28;20544;-87
2022/11/26 07:36:03;;;;;;;273.00;73.70;;;;;;;;;;5010421;28;20034;-88
2022/11/26 07:38:29;;;;;;;229.02;58.50;;;;;;;4.25;100.00;67251.44;5028668;28;20058;-88
2022/11/26 07:40:54;;;;;;;236.18;75.07;;;;;;;4.28;100.00;67252.19;5035961;28;20045;-89
2022/11/26 07:43:20;;;;;;;230.13;69.80;;;;;;;4.30;100.00;67254.47;5027922;28;20465;-88
2022/11/26 07:45:46;;;;;;;260.08;69.70;;;;;;;4.35;100.00;67259.00;5005484;28;20038;-88
2022/11/26 07:48:11;;;;;;;256.00;69.25;;;;;;;4.37;100.00;67261.22;5021329;28;20041;-88
2022/11/26 07:50:37;;;;;;;236.68;59.53;;;;;;;;;;5036968;28;20041;-87
2022/11/26 07:53:02;;;;;;;192.18;58.97;;;;;;;4.41;100.00;67261.03;5027696;28;20037;-88
2022/11/26 07:55:28;;;;;;;265.10;75.32;;;;;;;4.46;100.00;67266.13;5015275;28;20065;-88
2022/11/26 07:57:53;;;;;;;239.68;67.30;;;;;;;4.48;100.00;67273.66;5018824;28;20137;-87
2022/11/26 08:00:18;;;;;;;201.88;66.63;;;;;;;;;;5020480;28;20524;-87
2022/11/26 08:02:44;;;;;;;203.70;63.03;;;;;;;;;;5028821;28;20095;-87
2022/11/26 08:05:09;;;;;;;161.73;56.38;;;;;;;;;;5023918;28;20555;-87
2022/11/26 08:07:35;;;;;;;181.10;55.80;;;;;;;4.59;100.00;67288.69;5022350;28;20541;-89
2022/11/26 08:10:01;;;;;;;235.70;74.47;;;;;;;;;;5014521;28;20036;-87
2022/11/26 08:12:26;;;;;;;200.20;63.10;;;;;;;;;;5033743;28;20041;-89
2022/11/26 08:14:51;;;;;;;188.60;61.08;;;;;;;4.66;100.00;67293.41;5029022;28;20099;-86
2022/11/26 08:17:17;;;;;;;202.80;67.72;;;;;;;4.70;100.00;67298.50;5018535;28;20046;-89
2022/11/26 08:19:42;;;;;;;203.70;71.85;;;;;;;;;;5024603;28;20402;-89
2022/11/26 08:22:07;;;;;;;171.02;57.83;;;;;;;4.74;100.00;67297.16;5022579;28;20041;-87
2022/11/26 08:24:34;;;;;;;183.20;63.80;;;;;;;4.75;100.00;67304.13;5035158;28;20087;-88
2022/11/26 08:27:00;;;;;;;190.23;58.17;;;;;;;4.81;100.00;67309.78;5027620;28;20081;-86
2022/11/26 08:29:25;;;;;;;171.20;56.17;;;;;;;4.82;100.00;67310.91;5026041;28;20041;-88
2022/11/26 08:31:50;;;;;;;197.10;69.43;;;;;;;4.85;100.00;67309.03;5024529;28;20544;-87
2022/11/26 08:34:17;;;;;;;164.10;52.85;;;;;;;4.87;100.00;67316.56;5040817;28;20069;-88
2022/11/26 08:36:44;;;;;;;182.23;60.92;;;;;;;4.89;100.00;67313.53;5028512;28;20128;-89
2022/11/26 08:39:12;;;;;;;167.43;56.10;;;;;;;4.90;100.00;67322.59;5027410;28;20037;-89
2022/11/26 08:41:37;;;;;;;157.63;53.80;;;;;;;;;;5019124;28;20045;-89
2022/11/26 08:44:03;;;;;;;163.02;59.60;;;;;;;4.91;100.00;67324.28;5036914;28;20045;-89
2022/11/26 08:46:28;;;;;;;180.77;56.50;;;;;;;;;;5026793;28;20046;-86
2022/11/26 08:48:55;;;;;;;169.68;57.72;;;;;;;4.96;100.00;67327.28;5028714;28;20047;-88
2022/11/26 08:51:20;;;;;;;159.07;59.00;;;;;;;4.97;100.00;67328.41;5015616;28;20041;-88
2022/11/26 08:53:46;;;;;;;153.73;57.65;;;;;;;4.99;100.00;67330.13;5024342;28;20038;-88
2022/11/26 08:56:11;;;;;;;142.77;50.92;;;;;;;;;;5027134;28;20048;-87
2022/11/26 08:58:39;;;;;;;155.40;61.90;;;;;;;5.03;100.00;67329.34;5023730;28;20050;-88
2022/11/26 09:01:17;;;;;;;166.30;61.10;;;;;;;5.07;100.00;67339.16;5027106;28;20500;-87
2022/11/26 09:03:42;;;;;;;161.45;64.10;;;;;;;;;;5019323;28;20562;-87
2022/11/26 09:06:08;;;;;;;138.13;49.13;;;;;;;5.07;100.00;67338.59;5027424;28;20046;-87
2022/11/26 09:09:11;;;;;;;150.38;60.60;;;;;;;;;;5031244;28;20038;-87
2022/11/26 09:11:20;;;;;;;135.98;50.42;;;;;;;;;;5022330;28;20507;-87
2022/11/26 09:13:45;;;;;;;142.20;56.72;;;;;;;5.14;100.00;67347.03;5027626;28;20113;-88
2022/11/26 09:16:10;;;;;;;133.98;52.88;;;;;;;;;;5014660;28;20108;-87
2022/11/26 09:18:35;;;;;;;125.32;52.95;;;;;;;5.20;100.00;67348.53;5016417;28;20048;-87
2022/11/26 09:21:03;;;;;;;133.40;50.50;;;;;;;5.22;100.00;67350.25;5032117;28;20043;-86
2022/11/26 09:23:28;;;;;;;143.13;55.05;;;;;;;5.24;100.00;67351.94;5023945;28;20038;-85
2022/11/26 09:25:53;;;;;;;131.50;50.00;;;;;;;5.26;100.00;67360.03;5039105;28;20117;-85
2022/11/26 09:28:19;;;;;;;130.25;53.35;;;;;;;5.30;100.00;67367.22;5030176;28;20045;-87
2022/11/26 09:30:44;;;;;;;110.05;50.33;;;;;;;;;;5018894;28;20046;-85
2022/11/26 09:33:09;;;;;;;114.07;47.17;;;;;;;5.39;100.00;67374.16;5021678;28;20064;-87
2022/11/26 09:35:34;;;;;;;117.15;53.22;;;;;;;;;;5017731;28;20066;-86
2022/11/26 09:38:00;;;;;;;116.88;52.20;;;;;;;5.51;100.00;67382.44;5027952;28;20519;-86
2022/11/26 09:40:37;;;;;;;116.13;53.75;;;;;;;5.54;100.00;67391.13;5024112;28;20382;-86
2022/11/26 09:43:14;;;;;;;104.03;46.88;;;;;;;5.55;100.00;67392.25;5016508;28;20038;-86
2022/11/26 09:45:46;;;;;;;106.82;47.35;;;;;;;;;;5010124;28;20064;-86
2022/11/26 09:48:16;;;;;;;102.93;48.03;;;;;;;5.57;100.00;67393.94;5016596;28;20046;-86
2022/11/26 09:50:43;;;;;;;101.60;47.42;;;;;;;5.61;100.00;67399.03;5018879;28;20501;-85
2022/11/26 09:53:14;;;;;;;90.90;44.60;;;;;;;;;;5019115;28;20042;-85
2022/11/26 09:55:48;;;;;;;97.47;51.03;;;;;;;5.72;100.00;67402.97;5018226;28;20473;-85
2022/11/26 09:58:36;;;;;;;93.65;46.53;;;;;;;;;;5016891;28;20061;-85
2022/11/26 10:01:03;;;;;;;94.03;49.77;;;;;;;;;;5014975;28;20042;-85
2022/11/26 10:03:30;;;;;;;102.63;46.80;;;;;;;5.82;100.00;67421.63;5022021;28;20045;-85
2022/11/26 10:06:14;;;;;;;101.03;53.20;;;;;;;5.84;100.00;67423.88;5015242;28;20128;-86
2022/11/26 10:09:06;;;;;;;89.80;51.70;;;;;;;5.87;100.00;67422.00;5013417;28;20128;-85
2022/11/26 10:11:47;;;;;;;84.70;37.60;;;;;;;5.91;100.00;67431.25;5001788;28;20049;-85
2022/11/26 10:14:48;;;;;;;94.40;45.47;;;;;;;5.95;100.00;67436.34;5014494;28;20382;-85
2022/11/26 10:17:34;;;;;;;93.72;46.13;;;;;;;;;;5013734;28;20564;-85
2022/11/26 10:20:05;;;;;;;91.25;43.85;;;;;;;6.07;100.00;67444.03;5014903;28;20037;-85
2022/11/26 10:22:44;;;;;;;86.68;42.72;;;;;;;6.10;100.00;67444.81;5027008;28;20049;-85
2022/11/26 10:25:16;;;;;;;79.35;37.25;;;;;;;6.14;100.00;67456.69;5017467;28;20065;-85
2022/11/26 10:27:42;;;;;;;76.60;38.28;;;;;;;;;;5024312;28;20046;-85
2022/11/26 10:30:22;;;;;;;85.05;44.42;;;;;;;6.23;100.00;67466.88;5012312;28;20441;-85
2022/11/26 10:32:49;;;;;;;80.57;39.67;;;;;;;;;;5012066;28;20140;-84
2022/11/26 10:35:20;;;;;;;67.65;36.50;;;;;;;6.32;100.00;67477.59;5022337;28;20041;-85
2022/11/26 10:37:46;;;;;;;71.15;32.45;;;;;;;6.38;100.00;67475.88;5036424;28;20041;-86
2022/11/26 10:40:20;;;;;;;76.55;37.13;;;;;;;;;;5033755;28;20511;-86
2022/11/26 10:43:04;;;;;;;72.63;36.60;;;;;;;;;;5028123;28;20132;-86
2022/11/26 10:45:49;;;;;;;71.75;33.33;;;;;;;;;;5020922;28;20102;-86
2022/11/26 10:48:15;;;;;;;73.80;31.17;;;;;;;;;;5030941;28;21026;-85
2022/11/26 10:50:42;;;;;;;63.33;31.10;;;;;;;6.59;100.00;67506.44;5028178;28;20128;-85
2022/11/26 10:53:17;;;;;;;65.45;29.73;;;;;;;;;;5020793;28;20048;-85
2022/11/26 10:55:43;;;;;;;62.78;34.50;;;;;;;;;;5008146;28;20046;-84
2022/11/26 10:58:21;;;;;;;63.90;33.55;;;;;;;6.70;100.00;67513.59;5015985;28;20424;-86
2022/11/26 11:00:49;;;;;;;70.93;26.40;;;;;;;;;;5012380;28;20175;-85
2022/11/26 11:03:16;;;;;;;66.40;31.20;;;;;;;;;;5011952;28;20390;-85
2022/11/26 11:05:42;;;;;;;66.20;29.45;;;;;;;6.80;100.00;67522.25;5009183;28;20041;-85
2022/11/26 11:08:13;;;;;;;57.22;25.73;;;;;;;6.85;100.00;67535.88;5010275;28;20604;-86
2022/11/26 11:10:50;;;;;;;58.58;30.83;;;;;;;;;;5024907;28;20056;-86
2022/11/26 11:13:16;;;;;;;49.53;25.23;;;;;;;6.99;100.00;67545.81;5015641;28;20473;-86
2022/11/26 11:15:41;;;;;;;58.63;27.05;;;;;;;6.99;100.00;67545.81;5021513;28;20042;-86
2022/11/26 11:18:20;;;;;;;56.35;27.77;;;;;;;7.10;100.00;67557.72;5019344;28;20520;-86
2022/11/26 11:20:56;;;;;;;54.65;28.23;;;;;;;7.13;100.00;67561.09;5024661;28;20045;-85
2022/11/26 11:23:27;;;;;;;57.95;27.23;;;;;;;7.21;100.00;67575.44;5022801;28;20448;-84
2022/11/26 11:25:57;;;;;;;55.38;27.90;;;;;;;;;;5019575;28;20384;-85
2022/11/26 11:28:25;;;;;;;53.03;24.83;;;;;;;7.34;100.00;67584.31;5020881;28;20041;-85
2022/11/26 11:31:16;;;;;;;46.87;23.07;;;;;;;7.42;100.00;67593.94;5024596;28;20041;-86
2022/11/26 11:33:42;;;;;;;44.80;20.98;;;;;;;7.47;100.00;67604.88;4984987;28;20099;-86
2022/11/26 11:36:13;;;;;;;50.70;21.55;;;;;;;7.45;100.00;67597.31;5022689;28;20037;-85
2022/11/26 11:38:50;;;;;;;43.53;20.17;;;;;;;;;;5023053;28;20420;-85
2022/11/26 11:41:27;;;;;;;50.33;19.27;;;;;;;7.45;100.00;67604.69;5018292;28;20042;-86
2022/11/26 11:43:57;;;;;;;46.47;21.60;;;;;;;;;;5023338;28;20547;-86
2022/11/26 11:46:39;;;;;;;41.92;21.83;;;;;;;7.53;100.00;67610.53;5021762;28;20060;-85
2022/11/26 11:49:20;;;;;;;44.90;21.98;;;;;;;7.61;100.00;67619.59;5019800;28;20050;-86
2022/11/26 11:51:56;;;;;;;47.83;18.95;;;;;;;;;;5015267;28;20394;-87
2022/11/26 11:54:47;;;;;;;48.60;22.95;;;;;;;7.69;100.00;67623.34;5017731;28;20053;-86
2022/11/26 11:57:33;;;;;;;50.13;20.95;;;;;;;7.73;100.00;67627.31;5020734;28;20608;-86
2022/11/26 12:00:25;;;;;;;41.75;17.63;;;;;;;;;;5038159;28;20045;-86
2022/11/26 12:03:08;;;;;;;42.60;19.45;;;;;;;;;;5013367;28;20038;-86
2022/11/26 12:05:34;;;;;;;37.90;18.73;;;;;;;;;;5027717;28;20054;-86
2022/11/26 12:08:28;;;;;;;40.72;19.45;;;;;;;;;;5025815;28;20055;-86
2022/11/26 12:11:12;;;;;;;37.47;16.08;;;;;;;;;;5003972;28;20060;-85
2022/11/26 12:13:52;;;;;;;38.97;16.85;;;;;;;7.86;100.00;67642.59;4989357;28;20056;-85